createdAt,value
2023-04-03T00:00:22.411Z,3.35
2023-04-03T00:03:07.938Z,1.77
2023-04-03T00:05:53.408Z,1.40
2023-04-03T00:08:40.230Z,1.50
2023-04-03T00:11:26.140Z,1.52
2023-04-03T00:14:11.454Z,1.63
2023-04-03T00:16:56.733Z,1.73
2023-04-03T00:19:42.076Z,1.90
2023-04-03T00:22:29.542Z,2.10
2023-04-03T00:25:15.237Z,1.73
2023-04-03T00:28:01.136Z,2.20
2023-04-03T00:30:46.595Z,1.90
2023-04-03T00:33:32.016Z,1.98
2023-04-03T00:36:17.549Z,1.58
2023-04-03T00:39:02.699Z,1.60
2023-04-03T00:41:48.149Z,1.60
2023-04-03T00:44:36.592Z,1.85
2023-04-03T00:47:21.874Z,1.85
2023-04-03T00:50:08.000Z,1.73
2023-04-03T00:52:53.544Z,1.92
2023-04-03T00:55:39.606Z,1.85
2023-04-03T00:58:34.324Z,1.73
2023-04-03T01:01:24.229Z,1.77
2023-04-03T01:04:28.857Z,1.88
2023-04-03T01:07:24.381Z,2.30
2023-04-03T01:10:14.913Z,3.78
2023-04-03T01:13:01.507Z,1.92
2023-04-03T01:15:46.929Z,2.00
2023-04-03T01:18:34.345Z,1.77
2023-04-03T01:21:54.466Z,2.05
2023-04-03T01:24:40.156Z,1.98
2023-04-03T01:27:26.963Z,1.65
2023-04-03T01:30:15.170Z,2.22
2023-04-03T01:33:00.270Z,1.50
2023-04-03T01:35:45.995Z,2.10
2023-04-03T01:38:31.608Z,2.10
2023-04-03T01:41:17.747Z,2.70
2023-04-03T01:44:03.371Z,2.15
2023-04-03T01:46:48.665Z,2.45
2023-04-03T01:49:34.122Z,2.60
2023-04-03T01:52:19.450Z,2.13
2023-04-03T01:55:05.178Z,2.60
2023-04-03T01:57:50.796Z,2.05
2023-04-03T02:00:37.090Z,2.22
2023-04-03T02:03:23.381Z,2.42
2023-04-03T02:06:08.750Z,2.17
2023-04-03T02:08:53.955Z,2.83
2023-04-03T02:11:39.467Z,2.50
2023-04-03T02:14:24.878Z,2.70
2023-04-03T02:17:10.123Z,2.95
2023-04-03T02:19:55.630Z,2.80
2023-04-03T02:22:40.989Z,2.88
2023-04-03T02:25:26.969Z,2.20
2023-04-03T02:28:12.433Z,2.30
2023-04-03T02:30:57.974Z,2.50
2023-04-03T02:33:43.460Z,2.60
2023-04-03T02:36:29.653Z,2.28
2023-04-03T02:39:16.884Z,2.40
2023-04-03T02:42:01.936Z,2.22
2023-04-03T02:44:47.531Z,2.47
2023-04-03T02:47:32.612Z,2.60
2023-04-03T02:50:17.952Z,2.33
2023-04-03T02:53:03.378Z,2.25
2023-04-03T02:55:48.913Z,2.38
2023-04-03T02:58:34.023Z,2.50
2023-04-03T03:01:20.165Z,1.83
2023-04-03T03:04:05.377Z,2.53
2023-04-03T03:06:51.705Z,1.67
2023-04-03T03:09:37.077Z,2.05
2023-04-03T03:12:22.883Z,1.90
2023-04-03T03:15:09.070Z,3.55
2023-04-03T03:17:54.492Z,2.10
2023-04-03T03:20:39.732Z,1.80
2023-04-03T03:23:27.091Z,2.00
2023-04-03T03:26:12.576Z,2.83
2023-04-03T03:28:58.046Z,2.10
2023-04-03T03:31:43.426Z,1.70
2023-04-03T03:34:28.662Z,1.75
2023-04-03T03:37:14.106Z,2.30
2023-04-03T03:39:59.328Z,2.10
2023-04-03T03:42:44.828Z,1.52
2023-04-03T03:45:30.415Z,2.55
2023-04-03T03:48:15.851Z,1.73
2023-04-03T03:51:01.495Z,2.13
2023-04-03T03:53:46.626Z,2.00
2023-04-03T03:56:32.491Z,1.80
2023-04-03T03:59:17.651Z,1.63
2023-04-03T04:02:03.283Z,1.80
2023-04-03T04:04:50.071Z,2.97
2023-04-03T04:07:35.283Z,2.38
2023-04-03T04:10:21.174Z,2.10
2023-04-03T04:13:06.197Z,2.25
2023-04-03T04:15:51.689Z,1.80
2023-04-03T04:18:37.124Z,2.00
2023-04-03T04:21:22.581Z,2.70
2023-04-03T04:24:09.124Z,2.50
2023-04-03T04:26:54.413Z,2.95
2023-04-03T04:29:39.773Z,2.53
2023-04-03T04:32:25.299Z,2.10
2023-04-03T04:35:10.837Z,2.60
2023-04-03T04:37:56.399Z,2.80
2023-04-03T04:40:42.495Z,2.92
2023-04-03T04:43:27.751Z,2.55
2023-04-03T04:46:13.230Z,2.67
2023-04-03T04:48:58.480Z,2.58
2023-04-03T04:51:51.661Z,2.78
2023-04-03T04:54:37.383Z,2.60
2023-04-03T04:57:23.014Z,2.88
2023-04-03T05:00:08.804Z,3.60
2023-04-03T05:02:54.338Z,2.83
2023-04-03T05:05:40.114Z,2.17
2023-04-03T05:08:26.502Z,3.17
2023-04-03T05:11:11.936Z,2.92
2023-04-03T05:13:57.496Z,2.70
2023-04-03T05:16:43.094Z,3.22
2023-04-03T05:19:28.586Z,3.13
2023-04-03T05:22:14.013Z,2.70
2023-04-03T05:24:59.347Z,3.00
2023-04-03T05:27:44.781Z,3.65
2023-04-03T05:30:30.332Z,3.17
2023-04-03T05:33:15.873Z,2.88
2023-04-03T05:36:07.968Z,3.05
2023-04-03T05:38:53.849Z,3.05
2023-04-03T05:41:39.548Z,2.70
2023-04-03T05:44:24.973Z,3.03
2023-04-03T05:47:10.293Z,2.70
2023-04-03T05:49:55.547Z,2.80
2023-04-03T05:52:46.453Z,3.00
2023-04-03T05:55:32.139Z,2.78
2023-04-03T05:58:17.462Z,2.72
2023-04-03T06:01:03.044Z,2.83
2023-04-03T06:03:48.597Z,2.80
2023-04-03T06:06:52.960Z,2.78
2023-04-03T06:09:38.619Z,3.38
2023-04-03T06:12:24.594Z,3.15
2023-04-03T06:15:11.259Z,2.75
2023-04-03T06:17:56.413Z,3.45
2023-04-03T06:20:41.745Z,2.35
2023-04-03T06:23:27.196Z,3.22
2023-04-03T06:26:12.821Z,3.35
2023-04-03T06:28:58.003Z,3.33
2023-04-03T06:31:43.522Z,3.35
2023-04-03T06:34:29.053Z,3.03
2023-04-03T06:37:22.870Z,3.05
2023-04-03T06:40:12.174Z,3.03
2023-04-03T06:42:57.472Z,3.00
2023-04-03T06:45:42.801Z,2.97
2023-04-03T06:48:28.384Z,3.00
2023-04-03T06:51:21.546Z,2.92
2023-04-03T06:54:09.178Z,4.00
2023-04-03T06:56:54.479Z,3.15
2023-04-03T06:59:39.954Z,2.97
2023-04-03T07:02:25.370Z,3.03
2023-04-03T07:05:10.654Z,2.80
2023-04-03T07:07:56.402Z,2.95
2023-04-03T07:10:41.722Z,3.80
2023-04-03T07:13:27.565Z,2.72
2023-04-03T07:16:12.848Z,3.00
2023-04-03T07:18:58.777Z,3.03
2023-04-03T07:21:44.388Z,3.53
2023-04-03T07:24:29.649Z,2.97
2023-04-03T07:27:15.432Z,2.47
2023-04-03T07:30:00.908Z,2.90
2023-04-03T07:32:46.919Z,2.80
2023-04-03T07:35:32.210Z,2.80
2023-04-03T07:38:17.950Z,3.08
2023-04-03T07:41:04.468Z,2.92
2023-04-03T07:43:50.775Z,3.53
2023-04-03T07:46:36.565Z,3.10
2023-04-03T07:49:24.049Z,3.00
2023-04-03T07:52:10.015Z,3.33
2023-04-03T07:54:54.930Z,3.72
2023-04-03T07:57:41.198Z,3.28
2023-04-03T08:00:26.605Z,2.90
2023-04-03T08:03:12.921Z,3.22
2023-04-03T08:06:06.056Z,3.58
2023-04-03T08:08:53.020Z,2.90
2023-04-03T08:11:40.460Z,2.38
2023-04-03T08:14:25.727Z,2.47
2023-04-03T08:17:12.715Z,2.65
2023-04-03T08:19:58.080Z,2.38
2023-04-03T08:22:43.382Z,2.72
2023-04-03T08:25:30.444Z,2.25
2023-04-03T08:28:15.917Z,2.35
2023-04-03T08:31:07.048Z,3.03
2023-04-03T08:33:52.500Z,2.80
2023-04-03T08:36:38.453Z,3.03
2023-04-03T08:39:24.288Z,2.90
2023-04-03T08:42:44.832Z,3.97
2023-04-03T08:45:51.852Z,3.13
2023-04-03T08:48:41.901Z,2.40
2023-04-03T08:51:28.885Z,2.60
2023-04-03T08:54:35.081Z,2.40
2023-04-03T08:57:40.749Z,2.35
2023-04-03T09:00:31.112Z,2.35
2023-04-03T09:03:19.547Z,2.45
2023-04-03T09:06:19.677Z,2.10
2023-04-03T09:09:32.793Z,1.92
2023-04-03T09:12:29.141Z,1.90
2023-04-03T09:15:31.229Z,2.33
2023-04-03T09:18:47.345Z,2.30
2023-04-03T09:21:38.160Z,2.08
2023-04-03T09:24:24.860Z,1.80
2023-04-03T09:27:12.269Z,2.63
2023-04-03T09:29:58.949Z,2.22
2023-04-03T09:32:48.247Z,1.63
2023-04-03T09:35:47.165Z,1.33
2023-04-03T09:38:35.243Z,1.98
2023-04-03T09:41:20.893Z,1.90
2023-04-03T09:44:22.809Z,1.92
2023-04-03T09:47:25.300Z,1.92
2023-04-03T09:50:14.072Z,1.70
2023-04-03T09:52:59.742Z,1.30
2023-04-03T09:55:46.519Z,1.80
2023-04-03T09:58:49.893Z,1.80
2023-04-03T10:01:39.180Z,1.80
2023-04-03T10:04:25.345Z,1.63
2023-04-03T10:07:30.888Z,1.55
2023-04-03T10:10:16.063Z,1.65
2023-04-03T10:13:16.481Z,1.42
2023-04-03T10:16:15.710Z,1.85
2023-04-03T10:19:37.765Z,1.48
2023-04-03T10:22:46.604Z,1.50
2023-04-03T10:25:53.485Z,1.98
2023-04-03T10:29:12.708Z,1.92
2023-04-03T10:32:00.900Z,1.52
2023-04-03T10:35:02.339Z,1.58
2023-04-03T10:38:08.732Z,1.60
2023-04-03T10:41:01.668Z,1.70
2023-04-03T10:44:24.832Z,1.60
2023-04-03T10:47:23.003Z,1.55
2023-04-03T10:50:39.798Z,1.88
2023-04-03T10:53:28.011Z,1.65
2023-04-03T10:56:25.263Z,1.52
2023-04-03T10:59:29.527Z,1.67
2023-04-03T11:02:32.699Z,1.63
2023-04-03T11:05:33.530Z,1.73
2023-04-03T11:08:40.816Z,1.38
2023-04-03T11:11:30.841Z,1.10
2023-04-03T11:14:21.218Z,1.70
2023-04-03T11:17:06.648Z,1.27
2023-04-03T11:20:11.800Z,1.50
2023-04-03T11:23:05.461Z,1.67
2023-04-03T11:25:55.168Z,2.08
2023-04-03T11:28:41.683Z,1.48
2023-04-03T11:32:05.405Z,1.60
2023-04-03T11:34:55.426Z,1.30
2023-04-03T11:37:51.145Z,1.65
2023-04-03T11:40:38.732Z,1.55
2023-04-03T11:43:30.682Z,1.40
2023-04-03T11:46:17.357Z,1.50
2023-04-03T11:49:02.850Z,1.70
2023-04-03T11:51:48.471Z,1.73
2023-04-03T11:54:46.685Z,1.90
2023-04-03T11:57:58.531Z,1.50
2023-04-03T12:01:05.373Z,1.50
2023-04-03T12:03:50.541Z,1.50
2023-04-03T12:06:36.882Z,1.63
2023-04-03T12:09:36.040Z,1.65
2023-04-03T12:12:37.729Z,1.85
2023-04-03T12:15:48.548Z,1.40
2023-04-03T12:19:05.485Z,1.73
2023-04-03T12:22:08.437Z,1.77
2023-04-03T12:24:54.368Z,1.25
2023-04-03T12:27:43.176Z,1.50
2023-04-03T12:30:31.967Z,1.50
2023-04-03T12:33:45.549Z,1.63
2023-04-03T12:36:49.724Z,1.30
2023-04-03T12:40:03.056Z,1.60
2023-04-03T12:43:05.744Z,1.30
2023-04-03T12:46:01.508Z,1.60
2023-04-03T12:48:52.418Z,1.58
2023-04-03T12:51:45.474Z,1.40
2023-04-03T12:54:37.955Z,1.33
2023-04-03T12:57:27.454Z,1.40
2023-04-03T13:00:34.110Z,1.60
2023-04-03T13:03:25.495Z,1.70
2023-04-03T13:06:41.847Z,1.42
2023-04-03T13:09:29.842Z,1.25
2023-04-03T13:12:16.853Z,1.40
2023-04-03T13:15:13.729Z,1.40
2023-04-03T13:17:59.189Z,1.42
2023-04-03T13:20:44.511Z,1.30
2023-04-03T13:23:32.240Z,1.60
2023-04-03T13:26:19.598Z,1.50
2023-04-03T13:29:09.503Z,1.40
2023-04-03T13:31:57.542Z,1.50
2023-04-03T13:34:47.072Z,1.40
2023-04-03T13:37:35.963Z,1.63
2023-04-03T13:40:21.301Z,1.30
2023-04-03T13:43:18.871Z,1.30
2023-04-03T13:46:26.808Z,1.50
2023-04-03T13:49:23.254Z,1.40
2023-04-03T13:52:32.245Z,1.48
2023-04-03T13:55:27.148Z,1.27
2023-04-03T13:58:12.129Z,1.20
2023-04-03T14:01:08.845Z,1.80
2023-04-03T14:03:57.756Z,1.30
2023-04-03T14:06:43.131Z,1.40
2023-04-03T14:09:28.844Z,2.10
2023-04-03T14:12:30.688Z,1.38
2023-04-03T14:15:27.280Z,1.67
2023-04-03T14:18:14.378Z,1.20
2023-04-03T14:20:59.510Z,1.20
2023-04-03T14:23:45.080Z,1.35
2023-04-03T14:26:31.388Z,1.50
2023-04-03T14:29:16.954Z,1.40
2023-04-03T14:32:13.723Z,1.17
2023-04-03T14:35:01.931Z,1.20
2023-04-03T14:37:48.876Z,1.30
2023-04-03T14:40:34.167Z,1.40
2023-04-03T14:43:21.007Z,1.52
2023-04-03T14:46:12.448Z,1.45
2023-04-03T14:48:57.709Z,1.48
2023-04-03T14:51:42.850Z,1.00
2023-04-03T14:54:30.026Z,1.08
2023-04-03T14:57:17.180Z,1.30
2023-04-03T15:00:05.151Z,1.30
2023-04-03T15:02:50.805Z,1.17
2023-04-03T15:05:38.254Z,1.48
2023-04-03T15:08:30.249Z,1.05
2023-04-03T15:11:16.122Z,1.13
2023-04-03T15:14:01.455Z,1.48
2023-04-03T15:16:47.365Z,1.52
2023-04-03T15:19:41.806Z,1.02
2023-04-03T15:22:27.244Z,1.10
2023-04-03T15:25:13.439Z,0.95
2023-04-03T15:27:58.756Z,1.10
2023-04-03T15:30:44.071Z,0.80
2023-04-03T15:33:29.452Z,1.40
2023-04-03T15:36:23.013Z,1.42
2023-04-03T15:39:19.164Z,0.88
2023-04-03T15:42:07.060Z,1.00
2023-04-03T15:44:52.830Z,1.15
2023-04-03T15:47:38.960Z,1.25
2023-04-03T15:50:25.074Z,1.00
2023-04-03T15:53:10.722Z,1.00
2023-04-03T15:55:56.062Z,1.00
2023-04-03T15:58:41.597Z,0.80
2023-04-03T16:01:26.950Z,1.00
2023-04-03T16:04:13.334Z,1.20
2023-04-03T16:07:03.177Z,0.75
2023-04-03T16:09:48.772Z,1.52
2023-04-03T16:12:34.214Z,0.68
2023-04-03T16:15:19.696Z,1.10
2023-04-03T16:18:06.436Z,0.75
2023-04-03T16:20:51.670Z,0.93
2023-04-03T16:23:37.265Z,0.98
2023-04-03T16:26:22.566Z,1.40
2023-04-03T16:29:08.262Z,0.90
2023-04-03T16:31:53.975Z,1.40
2023-04-03T16:34:41.579Z,1.13
2023-04-03T16:37:28.555Z,1.20
2023-04-03T16:40:15.366Z,0.90
2023-04-03T16:43:02.019Z,0.90
2023-04-03T16:45:47.409Z,0.93
2023-04-03T16:48:32.900Z,0.80
2023-04-03T16:51:18.357Z,0.95
2023-04-03T16:54:03.759Z,0.80
2023-04-03T16:56:49.172Z,1.30
2023-04-03T16:59:34.662Z,1.02
2023-04-03T17:02:25.761Z,1.00
2023-04-03T17:05:11.148Z,0.70
2023-04-03T17:07:56.843Z,0.90
2023-04-03T17:10:42.005Z,1.40
2023-04-03T17:13:32.189Z,0.50
2023-04-03T17:16:17.921Z,0.90
2023-04-03T17:19:04.350Z,1.13
2023-04-03T17:21:49.748Z,0.80
2023-04-03T17:24:35.278Z,1.15
2023-04-03T17:27:20.347Z,1.10
2023-04-03T17:30:06.735Z,1.25
2023-04-03T17:32:52.051Z,1.10
2023-04-03T17:35:37.470Z,1.02
2023-04-03T17:38:23.091Z,0.90
2023-04-03T17:41:13.561Z,1.00
2023-04-03T17:43:58.611Z,1.00
2023-04-03T17:46:44.237Z,0.93
2023-04-03T17:49:29.410Z,1.00
2023-04-03T17:52:14.763Z,1.00
2023-04-03T17:55:00.318Z,0.85
2023-04-03T17:57:45.685Z,1.10
2023-04-03T18:00:31.023Z,0.73
2023-04-03T18:03:16.436Z,1.00
2023-04-03T18:06:14.816Z,1.00
2023-04-03T18:09:11.195Z,0.88
2023-04-03T18:11:57.558Z,0.82
2023-04-03T18:14:43.533Z,1.50
2023-04-03T18:17:28.959Z,1.10
2023-04-03T18:20:16.272Z,1.67
2023-04-03T18:23:01.361Z,1.27
2023-04-03T18:25:46.873Z,0.90
2023-04-03T18:28:32.341Z,0.80
2023-04-03T18:31:18.919Z,0.90
2023-04-03T18:34:05.939Z,1.75
2023-04-03T18:36:52.319Z,1.23
2023-04-03T18:39:37.911Z,0.90
2023-04-03T18:42:26.098Z,1.25
2023-04-03T18:45:13.373Z,0.90
2023-04-03T18:47:59.011Z,1.20
2023-04-03T18:50:45.374Z,1.05
2023-04-03T18:53:30.845Z,0.98
2023-04-03T18:56:16.503Z,1.00
2023-04-03T18:59:01.833Z,0.80
2023-04-03T19:01:47.489Z,0.95
2023-04-03T19:04:32.745Z,1.02
2023-04-03T19:07:18.290Z,1.08
2023-04-03T19:10:03.844Z,1.42
2023-04-03T19:12:51.101Z,1.05
2023-04-03T19:15:36.537Z,1.50
2023-04-03T19:18:21.914Z,0.90
2023-04-03T19:21:07.652Z,1.00
2023-04-03T19:23:53.120Z,1.13
2023-04-03T19:26:39.401Z,1.15
2023-04-03T19:29:24.533Z,0.90
2023-04-03T19:32:12.058Z,1.25
2023-04-03T19:34:59.880Z,1.10
2023-04-03T19:37:48.870Z,1.48
2023-04-03T19:40:35.442Z,1.10
2023-04-03T19:43:21.068Z,0.90
2023-04-03T19:46:07.276Z,1.10
2023-04-03T19:48:53.664Z,0.80
2023-04-03T19:51:39.154Z,1.02
2023-04-03T19:54:24.634Z,1.17
2023-04-03T19:57:10.065Z,0.98
2023-04-03T19:59:55.571Z,1.00
2023-04-03T20:02:40.812Z,1.20
2023-04-03T20:05:26.232Z,2.13
2023-04-03T20:08:11.745Z,1.27
2023-04-03T20:10:57.468Z,3.88
2023-04-03T20:13:42.917Z,1.23
2023-04-03T20:16:28.276Z,1.20
2023-04-03T20:19:14.028Z,1.33
2023-04-03T20:22:01.234Z,0.93
2023-04-03T20:24:46.663Z,1.13
2023-04-03T20:27:33.104Z,1.35
2023-04-03T20:30:18.895Z,1.02
2023-04-03T20:33:05.094Z,1.38
2023-04-03T20:35:50.554Z,1.30
2023-04-03T20:38:35.863Z,1.10
2023-04-03T20:41:20.932Z,1.30
2023-04-03T20:44:06.481Z,1.58
2023-04-03T20:46:53.823Z,1.38
2023-04-03T20:49:40.569Z,1.20
2023-04-03T20:52:29.186Z,1.38
2023-04-03T20:55:15.974Z,1.35
2023-04-03T20:58:01.791Z,1.20
2023-04-03T21:00:47.009Z,1.40
2023-04-03T21:03:32.379Z,1.40
2023-04-03T21:06:55.540Z,1.40
2023-04-03T21:10:18.563Z,0.90
2023-04-03T21:13:41.497Z,1.10
2023-04-03T21:16:27.239Z,1.33
2023-04-03T21:19:13.672Z,1.13
2023-04-03T21:22:02.429Z,1.48
2023-04-03T21:24:48.430Z,1.00
2023-04-03T21:27:33.629Z,1.60
2023-04-03T21:30:19.169Z,1.25
2023-04-03T21:33:04.910Z,1.23
2023-04-03T21:35:57.636Z,1.00
2023-04-03T21:38:45.225Z,1.20
2023-04-03T21:41:30.772Z,1.00
2023-04-03T21:44:16.753Z,1.30
2023-04-03T21:47:01.848Z,1.10
2023-04-03T21:49:48.172Z,1.15
2023-04-03T21:52:33.798Z,1.08
2023-04-03T21:55:19.717Z,0.95
2023-04-03T21:58:05.046Z,1.20
2023-04-03T22:00:51.003Z,1.02
2023-04-03T22:03:36.903Z,1.15
2023-04-03T22:06:22.263Z,1.13
2023-04-03T22:09:07.957Z,1.50
2023-04-03T22:11:53.141Z,1.75
2023-04-03T22:14:39.359Z,1.23
2023-04-03T22:17:24.378Z,1.13
2023-04-03T22:20:10.153Z,1.20
2023-04-03T22:22:55.431Z,1.40
2023-04-03T22:25:40.906Z,1.67
2023-04-03T22:28:27.531Z,1.38
2023-04-03T22:31:14.310Z,2.25
2023-04-03T22:34:04.031Z,1.20
2023-04-03T22:36:49.282Z,1.85
2023-04-03T22:39:34.521Z,1.30
2023-04-03T22:42:19.879Z,1.63
2023-04-03T22:45:06.658Z,1.45
2023-04-03T22:47:51.990Z,1.05
2023-04-03T22:50:39.860Z,1.23
2023-04-03T22:53:25.375Z,1.20
2023-04-03T22:56:10.994Z,1.10
2023-04-03T22:58:57.165Z,1.38
2023-04-03T23:01:42.645Z,1.13
2023-04-03T23:04:28.110Z,1.83
2023-04-03T23:07:13.385Z,2.33
2023-04-03T23:09:58.830Z,1.42
2023-04-03T23:12:44.192Z,1.88
2023-04-03T23:15:29.457Z,3.40
2023-04-03T23:18:14.866Z,1.92
2023-04-03T23:21:01.474Z,1.50
2023-04-03T23:23:47.012Z,1.10
2023-04-03T23:26:32.456Z,1.40
2023-04-03T23:29:17.741Z,1.55
2023-04-03T23:32:03.169Z,0.98
2023-04-03T23:34:48.422Z,1.20
2023-04-03T23:37:33.795Z,1.17
2023-04-03T23:40:19.294Z,1.02
2023-04-03T23:43:04.679Z,1.15
2023-04-03T23:45:50.480Z,1.10
2023-04-03T23:48:35.449Z,1.08
2023-04-03T23:51:21.493Z,1.25
2023-04-03T23:54:06.823Z,1.23
2023-04-03T23:56:52.060Z,1.20
2023-04-03T23:59:37.877Z,2.08
